createdAt,value
2019-05-30T00:00:40.763Z,14.50
2019-05-30T00:03:11.783Z,20.00
2019-05-30T00:05:42.709Z,17.25
2019-05-30T00:08:13.722Z,17.50
2019-05-30T00:10:44.314Z,18.75
2019-05-30T00:13:15.090Z,20.00
2019-05-30T00:15:46.322Z,20.00
2019-05-30T00:18:17.080Z,20.00
2019-05-30T00:20:48.357Z,17.50
2019-05-30T00:23:19.409Z,18.80
2019-05-30T00:25:50.554Z,17.00
2019-05-30T00:28:21.756Z,19.00
2019-05-30T00:30:56.368Z,17.50
2019-05-30T00:33:27.572Z,21.00
2019-05-30T00:35:59.738Z,16.80
2019-05-30T00:38:31.607Z,19.00
2019-05-30T00:41:02.611Z,21.25
2019-05-30T00:43:33.465Z,19.00
2019-05-30T00:46:06.245Z,24.67
2019-05-30T00:48:38.485Z,21.50
2019-05-30T00:51:09.532Z,22.25
2019-05-30T00:53:40.555Z,25.25
2019-05-30T00:56:11.212Z,22.20
2019-05-30T00:58:42.215Z,26.75
2019-05-30T01:01:13.131Z,26.00
2019-05-30T01:03:44.078Z,26.00
2019-05-30T01:06:15.132Z,25.00
2019-05-30T01:08:47.077Z,28.00
2019-05-30T01:11:17.981Z,27.25
2019-05-30T01:13:48.269Z,25.00
2019-05-30T01:16:18.509Z,23.25
2019-05-30T01:18:49.005Z,24.75
2019-05-30T01:21:19.228Z,25.00
2019-05-30T01:23:49.467Z,22.75
2019-05-30T01:26:19.694Z,22.75
2019-05-30T01:28:49.914Z,21.50
2019-05-30T01:31:20.097Z,20.00
2019-05-30T01:33:50.338Z,21.75
2019-05-30T01:36:20.565Z,24.75
2019-05-30T01:38:50.834Z,23.75
2019-05-30T01:41:21.161Z,22.80
2019-05-30T01:43:51.364Z,25.50
2019-05-30T01:46:21.557Z,28.75
2019-05-30T01:48:52.883Z,22.00
2019-05-30T01:51:23.110Z,22.75
2019-05-30T01:53:53.345Z,24.00
2019-05-30T01:56:23.610Z,24.50
2019-05-30T01:58:53.812Z,25.75
2019-05-30T02:01:25.676Z,25.75
2019-05-30T02:03:56.158Z,24.25
2019-05-30T02:06:26.331Z,25.50
2019-05-30T02:08:56.899Z,23.25
2019-05-30T02:11:27.085Z,24.50
2019-05-30T02:13:57.309Z,22.00
2019-05-30T02:16:27.615Z,23.75
2019-05-30T02:18:57.797Z,22.50
2019-05-30T02:21:28.010Z,26.00
2019-05-30T02:23:58.241Z,22.00
2019-05-30T02:26:28.443Z,23.75
2019-05-30T02:28:59.781Z,24.00
2019-05-30T02:31:39.185Z,21.00
2019-05-30T02:34:02.996Z,22.00
2019-05-30T02:36:33.862Z,20.00
2019-05-30T02:39:05.029Z,23.00
2019-05-30T02:41:35.359Z,24.75
2019-05-30T02:44:07.542Z,21.50
2019-05-30T02:46:37.711Z,23.00
2019-05-30T02:49:10.992Z,25.50
2019-05-30T02:51:39.847Z,25.25
2019-05-30T02:54:11.527Z,26.80
2019-05-30T02:56:41.975Z,24.00
2019-05-30T02:59:13.582Z,25.00
2019-05-30T03:01:59.996Z,27.25
2019-05-30T03:04:16.189Z,27.75
2019-05-30T03:06:46.410Z,29.75
2019-05-30T03:09:16.961Z,23.33
2019-05-30T03:11:47.150Z,25.00
2019-05-30T03:14:19.803Z,22.00
2019-05-30T03:16:49.732Z,23.25
2019-05-30T03:19:19.945Z,25.00
2019-05-30T03:21:50.168Z,21.50
2019-05-30T03:24:20.407Z,23.25
2019-05-30T03:26:50.655Z,22.00
2019-05-30T03:29:20.850Z,21.60
2019-05-30T03:31:51.067Z,20.25
2019-05-30T03:34:27.418Z,21.75
2019-05-30T03:36:53.222Z,24.50
2019-05-30T03:39:23.473Z,21.00
2019-05-30T03:41:53.674Z,24.00
2019-05-30T03:44:23.893Z,21.80
2019-05-30T03:46:57.100Z,27.50
2019-05-30T03:49:29.717Z,23.25
2019-05-30T03:51:59.971Z,24.75
2019-05-30T03:54:30.201Z,26.25
2019-05-30T03:57:09.047Z,23.50
2019-05-30T03:59:42.723Z,23.50
2019-05-30T04:02:20.424Z,21.00
2019-05-30T04:04:54.891Z,23.50
2019-05-30T04:07:25.318Z,28.00
2019-05-30T04:09:55.614Z,27.00
2019-05-30T04:12:42.145Z,29.00
2019-05-30T04:15:18.925Z,21.75
2019-05-30T04:17:49.217Z,25.20
2019-05-30T04:20:22.464Z,24.75
2019-05-30T04:22:51.325Z,23.50
2019-05-30T04:25:21.529Z,20.75
2019-05-30T04:27:51.732Z,22.00
2019-05-30T04:30:21.978Z,21.75
2019-05-30T04:32:52.170Z,19.80
2019-05-30T04:35:22.404Z,20.25
2019-05-30T04:37:52.603Z,18.50
2019-05-30T04:40:22.861Z,16.50
2019-05-30T04:42:53.076Z,18.80
2019-05-30T04:45:28.051Z,18.75
2019-05-30T04:47:56.420Z,14.40
2019-05-30T04:50:27.803Z,15.25
2019-05-30T04:52:59.120Z,16.80
2019-05-30T04:55:29.333Z,14.75
2019-05-30T04:57:59.542Z,17.25
2019-05-30T05:00:29.755Z,16.25
2019-05-30T05:02:59.974Z,28.00
2019-05-30T05:05:30.204Z,15.50
2019-05-30T05:08:01.508Z,16.25
2019-05-30T05:10:31.731Z,14.25
2019-05-30T05:13:01.957Z,14.75
2019-05-30T05:15:35.182Z,17.00
2019-05-30T05:18:06.518Z,14.00
2019-05-30T05:20:36.705Z,15.00
2019-05-30T05:23:07.784Z,17.00
2019-05-30T05:25:38.521Z,16.25
2019-05-30T05:28:08.723Z,14.50
2019-05-30T05:30:38.943Z,17.00
2019-05-30T05:33:09.156Z,19.00
2019-05-30T05:35:39.362Z,15.75
2019-05-30T05:38:09.582Z,17.75
2019-05-30T05:40:41.016Z,17.50
2019-05-30T05:43:11.222Z,13.40
2019-05-30T05:45:42.425Z,18.40
2019-05-30T05:48:12.660Z,16.67
2019-05-30T05:50:42.892Z,17.75
2019-05-30T05:53:13.072Z,16.75
2019-05-30T05:55:43.317Z,19.25
2019-05-30T05:58:13.615Z,16.80
2019-05-30T06:00:43.856Z,15.50
2019-05-30T06:03:14.054Z,14.50
2019-05-30T06:05:52.565Z,15.25
2019-05-30T06:08:17.255Z,14.25
2019-05-30T06:10:47.684Z,15.50
2019-05-30T06:13:18.653Z,14.75
2019-05-30T06:15:49.345Z,15.50
2019-05-30T06:18:20.153Z,15.50
2019-05-30T06:20:50.474Z,17.00
2019-05-30T06:23:21.579Z,14.20
2019-05-30T06:25:51.972Z,16.00
2019-05-30T06:28:22.230Z,16.75
2019-05-30T06:30:52.490Z,14.25
2019-05-30T06:33:23.491Z,17.25
2019-05-30T06:35:54.906Z,14.60
2019-05-30T06:38:25.326Z,17.25
2019-05-30T06:40:55.652Z,14.80
2019-05-30T06:43:28.299Z,16.50
2019-05-30T06:45:58.547Z,15.25
2019-05-30T06:48:28.863Z,15.80
2019-05-30T06:50:59.090Z,18.00
2019-05-30T06:53:29.441Z,13.50
2019-05-30T06:55:59.691Z,16.50
2019-05-30T06:58:47.449Z,14.60
2019-05-30T07:01:01.789Z,14.50
2019-05-30T07:03:32.676Z,16.00
2019-05-30T07:06:04.703Z,14.60
2019-05-30T07:08:35.202Z,17.60
2019-05-30T07:11:05.478Z,13.25
2019-05-30T07:13:35.663Z,15.50
2019-05-30T07:16:05.963Z,14.00
2019-05-30T07:18:36.820Z,16.75
2019-05-30T07:21:07.345Z,19.20
2019-05-30T07:23:39.457Z,15.75
2019-05-30T07:26:09.545Z,19.00
2019-05-30T07:28:40.973Z,20.25
2019-05-30T07:31:11.168Z,23.80
2019-05-30T07:33:41.390Z,20.00
2019-05-30T07:36:11.635Z,16.00
2019-05-30T07:38:41.835Z,15.25
2019-05-30T07:41:12.809Z,14.25
2019-05-30T07:43:43.076Z,12.75
2019-05-30T07:46:13.308Z,17.50
2019-05-30T07:48:44.254Z,18.00
2019-05-30T07:51:15.492Z,19.25
2019-05-30T07:53:46.037Z,13.00
2019-05-30T07:56:16.280Z,18.00
2019-05-30T07:58:48.241Z,18.50
2019-05-30T08:01:18.499Z,16.00
2019-05-30T08:03:48.714Z,20.00
2019-05-30T08:06:18.935Z,14.25
2019-05-30T08:08:49.134Z,13.50
2019-05-30T08:11:19.319Z,13.75
2019-05-30T08:13:49.538Z,13.60
2019-05-30T08:16:22.013Z,16.00
2019-05-30T08:18:52.789Z,11.25
2019-05-30T08:21:24.000Z,13.00
2019-05-30T08:23:54.422Z,15.25
2019-05-30T08:26:24.603Z,10.00
2019-05-30T08:28:55.219Z,11.75
2019-05-30T08:31:25.463Z,11.80
2019-05-30T08:33:56.225Z,8.25
2019-05-30T08:36:26.451Z,11.75
2019-05-30T08:38:56.657Z,9.80
2019-05-30T08:41:26.845Z,9.75
2019-05-30T08:43:57.057Z,8.50
2019-05-30T08:46:27.223Z,8.75
2019-05-30T08:48:57.460Z,6.50
2019-05-30T08:51:27.969Z,6.00
2019-05-30T08:53:58.166Z,6.00
2019-05-30T08:56:28.665Z,6.25
2019-05-30T08:58:58.981Z,6.00
2019-05-30T09:01:29.213Z,9.50
2019-05-30T09:03:59.391Z,7.75
2019-05-30T09:06:29.608Z,7.20
2019-05-30T09:08:59.818Z,8.00
2019-05-30T09:11:30.040Z,9.25
2019-05-30T09:14:00.230Z,6.75
2019-05-30T09:16:30.461Z,7.00
2019-05-30T09:19:01.703Z,7.25
2019-05-30T09:21:32.024Z,9.25
2019-05-30T09:24:02.231Z,9.75
2019-05-30T09:26:32.429Z,9.75
2019-05-30T09:29:03.868Z,7.75
2019-05-30T09:31:34.724Z,10.00
2019-05-30T09:34:05.418Z,9.25
2019-05-30T09:36:35.659Z,9.25
2019-05-30T09:39:07.705Z,5.40
2019-05-30T09:41:37.997Z,7.20
2019-05-30T09:44:09.344Z,7.00
2019-05-30T09:46:40.878Z,7.00
2019-05-30T09:49:11.563Z,5.25
2019-05-30T09:51:42.550Z,6.00
2019-05-30T09:54:13.828Z,7.00
2019-05-30T09:56:44.999Z,7.20
2019-05-30T09:59:15.672Z,8.00
2019-05-30T10:01:46.107Z,6.00
2019-05-30T10:04:16.402Z,7.25
2019-05-30T10:06:46.868Z,7.25
2019-05-30T10:09:17.100Z,6.25
2019-05-30T10:11:47.315Z,8.00
2019-05-30T10:14:17.499Z,7.25
2019-05-30T10:16:53.360Z,7.00
2019-05-30T10:19:21.978Z,5.00
2019-05-30T10:21:53.133Z,8.00
2019-05-30T10:24:23.562Z,8.00
2019-05-30T10:26:53.767Z,4.00
2019-05-30T10:29:23.935Z,5.75
2019-05-30T10:31:54.145Z,3.40
2019-05-30T10:34:24.319Z,3.00
2019-05-30T10:36:55.695Z,5.00
2019-05-30T10:39:26.004Z,5.00
2019-05-30T10:41:57.229Z,3.00
2019-05-30T10:44:27.635Z,4.00
2019-05-30T10:46:57.858Z,4.25
2019-05-30T10:49:34.632Z,3.00
2019-05-30T10:51:59.925Z,3.00
2019-05-30T10:54:30.125Z,4.00
2019-05-30T10:57:00.380Z,3.25
2019-05-30T10:59:30.921Z,4.00
2019-05-30T11:02:01.130Z,5.00
2019-05-30T11:04:31.543Z,4.20
2019-05-30T11:07:17.936Z,4.00
2019-05-30T11:09:52.806Z,4.00
2019-05-30T11:12:23.092Z,4.25
2019-05-30T11:14:53.785Z,4.25
2019-05-30T11:17:24.190Z,5.75
2019-05-30T11:19:54.406Z,5.00
2019-05-30T11:22:24.668Z,5.00
2019-05-30T11:24:54.888Z,4.00
2019-05-30T11:27:25.136Z,4.00
2019-05-30T11:29:55.342Z,2.00
2019-05-30T11:32:25.548Z,4.00
2019-05-30T11:34:57.364Z,5.20
2019-05-30T11:37:27.734Z,3.00
2019-05-30T11:39:58.037Z,3.00
2019-05-30T11:42:28.250Z,3.25
2019-05-30T11:45:00.783Z,3.75
2019-05-30T11:47:31.947Z,3.20
2019-05-30T11:50:02.161Z,3.20
2019-05-30T11:52:32.357Z,3.00
2019-05-30T11:55:02.618Z,3.40
2019-05-30T11:57:32.929Z,4.00
2019-05-30T12:00:03.318Z,4.00
2019-05-30T12:02:33.561Z,6.50
2019-05-30T12:05:05.587Z,4.00
2019-05-30T12:07:37.034Z,8.20
2019-05-30T12:10:09.069Z,5.00
2019-05-30T12:12:39.257Z,4.00
2019-05-30T12:15:09.463Z,5.00
2019-05-30T12:17:39.633Z,3.00
2019-05-30T12:20:09.855Z,6.00
2019-05-30T12:22:40.057Z,5.00
2019-05-30T12:25:11.332Z,4.25
2019-05-30T12:27:41.992Z,3.25
2019-05-30T12:30:14.710Z,4.00
2019-05-30T12:32:44.932Z,3.80
2019-05-30T12:35:16.244Z,4.00
2019-05-30T12:37:55.018Z,3.20
2019-05-30T12:40:19.592Z,3.00
2019-05-30T12:42:49.815Z,4.00
2019-05-30T12:45:21.106Z,4.00
2019-05-30T12:47:51.328Z,4.80
2019-05-30T12:50:21.565Z,3.00
2019-05-30T12:52:51.830Z,2.00
2019-05-30T12:55:23.621Z,2.80
2019-05-30T12:57:54.611Z,4.00
2019-05-30T13:00:25.405Z,3.25
2019-05-30T13:02:56.438Z,4.00
2019-05-30T13:05:27.287Z,5.25
2019-05-30T13:08:14.144Z,4.00
2019-05-30T13:10:29.447Z,4.80
2019-05-30T13:12:59.716Z,4.00
2019-05-30T13:15:33.362Z,4.00
2019-05-30T13:18:03.568Z,3.00
2019-05-30T13:20:34.470Z,5.00
2019-05-30T13:23:04.850Z,3.00
2019-05-30T13:25:36.110Z,3.00
2019-05-30T13:28:08.520Z,3.60
2019-05-30T13:30:38.578Z,4.00
2019-05-30T13:33:09.915Z,4.00
2019-05-30T13:35:40.579Z,6.00
2019-05-30T13:38:25.685Z,5.00
2019-05-30T13:40:46.649Z,2.75
2019-05-30T13:43:16.990Z,4.75
2019-05-30T13:45:47.164Z,6.75
2019-05-30T13:48:17.969Z,3.40
2019-05-30T13:50:48.212Z,4.00
2019-05-30T13:53:18.407Z,4.25
2019-05-30T13:55:48.892Z,4.00
2019-05-30T13:58:19.081Z,3.00
2019-05-30T14:00:49.612Z,2.75
2019-05-30T14:03:21.694Z,3.60
2019-05-30T14:05:52.948Z,7.75
2019-05-30T14:08:23.149Z,5.00
2019-05-30T14:10:54.748Z,4.00
2019-05-30T14:13:25.204Z,4.00
2019-05-30T14:15:55.460Z,4.25
2019-05-30T14:18:25.712Z,4.00
2019-05-30T14:20:55.904Z,4.20
2019-05-30T14:23:26.128Z,3.00
2019-05-30T14:25:56.316Z,4.00
2019-05-30T14:28:26.529Z,3.75
2019-05-30T14:30:56.760Z,4.00
2019-05-30T14:33:27.020Z,4.40
2019-05-30T14:35:57.245Z,4.00
2019-05-30T14:38:32.616Z,3.00
2019-05-30T14:41:04.835Z,4.00
2019-05-30T14:43:50.553Z,3.60
2019-05-30T14:46:22.695Z,5.00
2019-05-30T14:48:52.959Z,3.20
2019-05-30T14:51:25.183Z,4.00
2019-05-30T14:53:55.145Z,3.60
2019-05-30T14:56:25.419Z,4.25
2019-05-30T14:58:55.625Z,3.75
2019-05-30T15:01:25.827Z,5.00
2019-05-30T15:03:56.047Z,3.00
2019-05-30T15:06:26.238Z,2.20
2019-05-30T15:08:56.487Z,4.75
2019-05-30T15:11:27.480Z,5.00
2019-05-30T15:13:57.875Z,3.25
2019-05-30T15:16:28.208Z,3.75
2019-05-30T15:18:58.427Z,3.00
2019-05-30T15:21:28.987Z,3.75
2019-05-30T15:24:01.656Z,3.00
2019-05-30T15:26:31.919Z,4.00
2019-05-30T15:29:02.123Z,4.00
2019-05-30T15:31:32.379Z,4.60
2019-05-30T15:34:03.654Z,4.00
2019-05-30T15:36:33.947Z,4.40
2019-05-30T15:39:06.750Z,5.25
2019-05-30T15:41:37.404Z,5.00
2019-05-30T15:44:07.711Z,7.00
2019-05-30T15:46:40.177Z,4.00
2019-05-30T15:49:12.737Z,5.00
2019-05-30T15:51:55.380Z,3.25
2019-05-30T15:54:28.620Z,5.50
2019-05-30T15:56:59.182Z,5.50
2019-05-30T15:59:30.349Z,6.00
2019-05-30T16:02:00.658Z,6.60
2019-05-30T16:04:30.973Z,5.00
2019-05-30T16:07:01.284Z,6.00
2019-05-30T16:09:46.294Z,6.00
2019-05-30T16:12:04.589Z,6.20
2019-05-30T16:14:35.894Z,5.00
2019-05-30T16:17:06.149Z,5.00
2019-05-30T16:19:36.356Z,5.00
2019-05-30T16:22:18.441Z,6.00
2019-05-30T16:24:49.642Z,5.20
2019-05-30T16:27:19.899Z,6.00
2019-05-30T16:29:50.151Z,3.25
2019-05-30T16:32:20.383Z,3.75
2019-05-30T16:34:50.653Z,5.00
2019-05-30T16:37:22.275Z,4.40
2019-05-30T16:40:05.322Z,3.50
2019-05-30T16:42:36.493Z,4.00
2019-05-30T16:45:25.038Z,4.75
2019-05-30T16:47:55.019Z,4.75
2019-05-30T16:50:25.257Z,4.00
2019-05-30T16:52:55.549Z,5.00
2019-05-30T16:55:26.061Z,4.00
2019-05-30T16:57:57.233Z,3.75
2019-05-30T17:00:27.460Z,2.00
2019-05-30T17:02:58.349Z,4.00
2019-05-30T17:05:28.585Z,4.50
2019-05-30T17:07:58.834Z,4.25
2019-05-30T17:10:32.844Z,5.00
2019-05-30T17:13:00.957Z,4.00
2019-05-30T17:15:32.976Z,4.00
2019-05-30T17:18:03.442Z,4.75
2019-05-30T17:20:33.675Z,3.25
2019-05-30T17:23:03.940Z,4.00
2019-05-30T17:25:34.460Z,3.60
2019-05-30T17:28:05.413Z,4.25
2019-05-30T17:30:35.602Z,3.50
2019-05-30T17:33:05.894Z,4.75
2019-05-30T17:35:36.140Z,3.00
2019-05-30T17:38:06.845Z,4.40
2019-05-30T17:40:44.605Z,4.25
2019-05-30T17:43:09.566Z,3.80
2019-05-30T17:45:39.778Z,4.00
2019-05-30T17:48:16.583Z,3.75
2019-05-30T17:50:41.907Z,4.00
2019-05-30T17:53:12.122Z,3.75
2019-05-30T17:55:43.719Z,3.80
2019-05-30T17:58:14.094Z,3.00
2019-05-30T18:00:44.519Z,5.25
2019-05-30T18:03:15.136Z,4.00
2019-05-30T18:05:45.377Z,3.60
2019-05-30T18:08:17.412Z,4.00
2019-05-30T18:10:53.802Z,4.00
2019-05-30T18:13:20.994Z,3.00
2019-05-30T18:15:51.418Z,8.60
2019-05-30T18:18:23.172Z,7.25
2019-05-30T18:20:55.471Z,3.50
2019-05-30T18:23:27.635Z,3.20
2019-05-30T18:26:00.455Z,3.50
2019-05-30T18:28:31.941Z,4.00
2019-05-30T18:31:02.447Z,4.00
2019-05-30T18:33:32.682Z,3.50
2019-05-30T18:36:04.313Z,4.00
2019-05-30T18:38:34.507Z,2.75
2019-05-30T18:41:11.498Z,3.00
2019-05-30T18:43:36.645Z,2.40
2019-05-30T18:46:08.053Z,3.00
2019-05-30T18:48:38.237Z,3.25
2019-05-30T18:51:09.683Z,3.00
2019-05-30T18:53:39.951Z,3.00
2019-05-30T18:56:10.510Z,3.00
2019-05-30T18:58:40.812Z,1.00
2019-05-30T19:01:12.035Z,7.40
2019-05-30T19:03:53.868Z,5.00
2019-05-30T19:06:28.389Z,4.00
2019-05-30T19:08:59.192Z,4.25
2019-05-30T19:11:35.314Z,4.50
2019-05-30T19:14:04.046Z,3.00
2019-05-30T19:16:34.635Z,4.25
2019-05-30T19:19:06.639Z,3.00
2019-05-30T19:21:36.874Z,4.40
2019-05-30T19:24:07.209Z,3.25
2019-05-30T19:26:37.464Z,4.00
2019-05-30T19:29:07.709Z,2.75
2019-05-30T19:31:38.976Z,4.20
2019-05-30T19:34:11.195Z,4.25
2019-05-30T19:36:41.396Z,6.00
2019-05-30T19:39:12.083Z,5.00
2019-05-30T19:41:55.523Z,4.00
2019-05-30T19:44:14.228Z,3.00
2019-05-30T19:46:45.159Z,5.00
2019-05-30T19:49:15.768Z,4.00
2019-05-30T19:51:46.084Z,4.80
2019-05-30T19:54:16.265Z,5.00
2019-05-30T19:56:46.528Z,5.25
2019-05-30T19:59:16.832Z,4.60
2019-05-30T20:01:47.071Z,5.25
2019-05-30T20:04:17.296Z,4.60
2019-05-30T20:06:47.910Z,4.50
2019-05-30T20:09:18.132Z,6.00
2019-05-30T20:12:02.127Z,4.75
2019-05-30T20:14:20.819Z,4.75
2019-05-30T20:16:51.009Z,4.00
2019-05-30T20:19:21.518Z,4.40
2019-05-30T20:21:52.825Z,3.00
2019-05-30T20:24:23.038Z,5.75
2019-05-30T20:26:53.272Z,4.20
2019-05-30T20:29:25.442Z,4.00
2019-05-30T20:31:57.850Z,5.50
2019-05-30T20:34:28.094Z,4.00
2019-05-30T20:36:58.646Z,3.40
2019-05-30T20:39:29.707Z,3.00
2019-05-30T20:42:00.000Z,4.25
2019-05-30T20:44:30.283Z,4.25
2019-05-30T20:47:00.548Z,5.20
2019-05-30T20:49:31.878Z,4.00
2019-05-30T20:52:02.132Z,5.00
2019-05-30T20:54:32.335Z,4.00
2019-05-30T20:57:02.586Z,4.00
2019-05-30T20:59:32.809Z,4.00
2019-05-30T21:02:03.750Z,4.50
2019-05-30T21:04:34.671Z,5.00
2019-05-30T21:07:04.951Z,5.25
2019-05-30T21:09:40.000Z,3.75
2019-05-30T21:12:10.787Z,5.25
2019-05-30T21:14:41.503Z,4.25
2019-05-30T21:17:14.614Z,4.33
2019-05-30T21:19:46.093Z,5.00
2019-05-30T21:22:17.987Z,6.25
2019-05-30T21:24:48.326Z,6.00
2019-05-30T21:27:18.558Z,6.20
2019-05-30T21:29:50.322Z,6.25
2019-05-30T21:32:20.670Z,4.00
2019-05-30T21:34:51.829Z,6.40
2019-05-30T21:37:23.623Z,3.00
2019-05-30T21:39:55.789Z,5.00
2019-05-30T21:42:26.037Z,4.00
2019-05-30T21:44:56.336Z,4.75
2019-05-30T21:47:26.562Z,4.00
2019-05-30T21:49:58.080Z,6.00
2019-05-30T21:52:28.670Z,3.75
2019-05-30T21:55:03.203Z,6.00
2019-05-30T21:57:32.699Z,4.50
2019-05-30T22:00:02.905Z,6.40
2019-05-30T22:02:33.613Z,4.00
2019-05-30T22:05:05.037Z,4.50
2019-05-30T22:07:35.537Z,4.25
2019-05-30T22:10:06.206Z,5.25
2019-05-30T22:12:36.911Z,5.00
2019-05-30T22:15:07.154Z,5.60
2019-05-30T22:17:37.373Z,4.50
2019-05-30T22:20:08.369Z,5.00
2019-05-30T22:22:39.156Z,6.50
2019-05-30T22:25:09.715Z,6.25
2019-05-30T22:27:40.167Z,6.75
2019-05-30T22:30:10.709Z,5.25
2019-05-30T22:32:42.552Z,6.00
2019-05-30T22:35:14.342Z,5.00
2019-05-30T22:37:45.111Z,5.60
2019-05-30T22:40:15.395Z,4.25
2019-05-30T22:42:46.285Z,6.25
2019-05-30T22:45:17.088Z,6.25
2019-05-30T22:47:48.366Z,5.00
2019-05-30T22:50:18.689Z,6.25
2019-05-30T22:52:49.010Z,7.00
2019-05-30T22:55:19.210Z,5.40
2019-05-30T22:57:50.356Z,7.50
2019-05-30T23:00:20.665Z,7.00
2019-05-30T23:02:51.941Z,5.50
2019-05-30T23:05:22.240Z,6.25
2019-05-30T23:07:53.543Z,6.50
2019-05-30T23:10:23.970Z,6.00
2019-05-30T23:12:54.276Z,8.75
2019-05-30T23:15:24.485Z,6.00
2019-05-30T23:17:54.856Z,5.50
2019-05-30T23:20:25.205Z,6.50
2019-05-30T23:22:55.580Z,7.40
2019-05-30T23:25:25.798Z,7.75
2019-05-30T23:27:56.029Z,7.25
2019-05-30T23:30:26.213Z,8.25
2019-05-30T23:32:56.425Z,8.50
2019-05-30T23:35:26.685Z,8.00
2019-05-30T23:37:56.905Z,7.25
2019-05-30T23:40:28.152Z,7.00
2019-05-30T23:42:59.236Z,5.50
2019-05-30T23:45:30.690Z,5.00
2019-05-30T23:48:00.948Z,8.00
2019-05-30T23:50:31.182Z,6.00
2019-05-30T23:53:01.453Z,8.50
2019-05-30T23:55:31.667Z,7.40
2019-05-30T23:58:01.851Z,8.25
